DAL6540 PHTO-PHKO
Flight info
| Callsign | DAL6540 |
|---|---|
| Flight time | 0h 23m |
| Altitude | 16000 |
| Route | ITO V22 OKALA VECKI9 |
| Aircraft | A319/M-SDE3FGHIRWY/LB1 |
Departure
| Time | 2026-04-24 20:50 |
|---|---|
| Airport | Hilo International Airport (PHTO) |
Arrival
| Time | 2026-04-24 21:13 |
|---|---|
| Airport | Ellison Onizuka Kona International Airport at Keāhole (PHKO) |
| Time | Latitude | Longitude | Altitude | Speed | Heading |
|---|---|---|---|---|---|
| 2026-04-24 20:24 | 19.71560 | -155.04111 | 41 ft | 0 kts | 177° |
| 2026-04-24 20:40 | 19.71568 | -155.04112 | 38 ft | 4 kts | 177° |
| 2026-04-24 20:40 | 19.71595 | -155.04113 | 41 ft | 5 kts | 177° |
| 2026-04-24 20:40 | 19.71632 | -155.04115 | 39 ft | 5 kts | 177° |
| 2026-04-24 20:40 | 19.71646 | -155.04120 | 41 ft | 0 kts | 89° |
| 2026-04-24 20:41 | 19.71646 | -155.04126 | 41 ft | 0 kts | 90° |
| 2026-04-24 20:44 | 19.71646 | -155.04109 | 41 ft | 8 kts | 89° |
| 2026-04-24 20:44 | 19.71688 | -155.04063 | 42 ft | 12 kts | 17° |
| 2026-04-24 20:45 | 19.71784 | -155.04057 | 42 ft | 16 kts | 360° |
| 2026-04-24 20:45 | 19.71900 | -155.04055 | 42 ft | 18 kts | 0° |
| 2026-04-24 20:45 | 19.71955 | -155.04055 | 42 ft | 18 kts | 0° |
| 2026-04-24 20:45 | 19.72002 | -155.03963 | 41 ft | 17 kts | 84° |
| 2026-04-24 20:46 | 19.72011 | -155.03821 | 44 ft | 19 kts | 95° |
| 2026-04-24 20:46 | 19.72016 | -155.03684 | 45 ft | 20 kts | 92° |
| 2026-04-24 20:46 | 19.72016 | -155.03528 | 44 ft | 23 kts | 90° |
| 2026-04-24 20:46 | 19.72014 | -155.03350 | 46 ft | 25 kts | 88° |
| 2026-04-24 20:47 | 19.72016 | -155.03220 | 46 ft | 21 kts | 94° |
| 2026-04-24 20:47 | 19.72016 | -155.03042 | 47 ft | 26 kts | 90° |
| 2026-04-24 20:47 | 19.72019 | -155.02958 | 47 ft | 4 kts | 54° |
| 2026-04-24 20:47 | 19.72035 | -155.02951 | 46 ft | 4 kts | 12° |
| 2026-04-24 20:48 | 19.72047 | -155.02951 | 47 ft | 0 kts | 0° |
| 2026-04-24 20:49 | 19.72122 | -155.02958 | 47 ft | 16 kts | 334° |
| 2026-04-24 20:49 | 19.72146 | -155.03074 | 46 ft | 20 kts | 269° |
| 2026-04-24 20:49 | 19.72148 | -155.03577 | 47 ft | 123 kts | 270° |
| 2026-04-24 20:49 | 19.72141 | -155.04710 | 140 ft | 189 kts | 271° |
| 2026-04-24 20:50 | 19.72171 | -155.06077 | 1281 ft | 185 kts | 282° |
| 2026-04-24 20:50 | 19.72735 | -155.07290 | 2345 ft | 196 kts | 319° |
| 2026-04-24 20:50 | 19.73897 | -155.07854 | 3668 ft | 179 kts | 354° |
| 2026-04-24 20:50 | 19.75137 | -155.07960 | 4832 ft | 179 kts | 357° |
| 2026-04-24 20:51 | 19.76388 | -155.08031 | 5879 ft | 183 kts | 0° |
| 2026-04-24 20:51 | 19.77653 | -155.07597 | 6644 ft | 206 kts | 37° |
| 2026-04-24 20:51 | 19.78531 | -155.06302 | 7263 ft | 233 kts | 71° |
| 2026-04-24 20:51 | 19.78767 | -155.04513 | 7795 ft | 259 kts | 79° |
| 2026-04-24 20:52 | 19.79477 | -155.02723 | 8392 ft | 280 kts | 51° |
| 2026-04-24 20:52 | 19.80974 | -155.01388 | 9443 ft | 285 kts | 24° |
| 2026-04-24 20:52 | 19.82890 | -155.00875 | 10572 ft | 289 kts | 0° |
| 2026-04-24 20:52 | 19.84924 | -155.01244 | 11246 ft | 310 kts | 337° |
| 2026-04-24 20:53 | 19.86779 | -155.02541 | 11809 ft | 333 kts | 314° |
| 2026-04-24 20:53 | 19.88050 | -155.04629 | 12725 ft | 342 kts | 292° |
| 2026-04-24 20:53 | 19.88742 | -155.07069 | 13813 ft | 348 kts | 288° |
| 2026-04-24 20:53 | 19.89579 | -155.09505 | 14759 ft | 353 kts | 295° |
| 2026-04-24 20:54 | 19.90760 | -155.11813 | 15584 ft | 359 kts | 303° |
| 2026-04-24 20:54 | 19.92156 | -155.13933 | 15962 ft | 361 kts | 308° |
| 2026-04-24 20:54 | 19.93753 | -155.16040 | 16106 ft | 362 kts | 310° |
| 2026-04-24 20:54 | 19.95365 | -155.18045 | 16132 ft | 361 kts | 311° |
| 2026-04-24 20:55 | 19.97010 | -155.20063 | 16135 ft | 361 kts | 311° |
| 2026-04-24 20:55 | 19.98651 | -155.22080 | 16133 ft | 361 kts | 311° |
| 2026-04-24 20:55 | 20.00279 | -155.24115 | 16131 ft | 361 kts | 308° |
| 2026-04-24 20:55 | 20.01496 | -155.26447 | 16133 ft | 363 kts | 291° |
| 2026-04-24 20:56 | 20.01998 | -155.29082 | 16141 ft | 367 kts | 274° |
| 2026-04-24 20:56 | 20.01885 | -155.31794 | 16157 ft | 368 kts | 268° |
| 2026-04-24 20:56 | 20.01716 | -155.34501 | 16175 ft | 367 kts | 268° |
| 2026-04-24 20:56 | 20.01553 | -155.37213 | 16195 ft | 368 kts | 268° |
| 2026-04-24 20:57 | 20.01396 | -155.39892 | 16212 ft | 368 kts | 268° |
| 2026-04-24 20:57 | 20.01239 | -155.42601 | 16111 ft | 364 kts | 268° |
| 2026-04-24 20:57 | 20.01083 | -155.45281 | 15722 ft | 362 kts | 269° |
| 2026-04-24 20:57 | 20.00928 | -155.47940 | 15193 ft | 359 kts | 269° |
| 2026-04-24 20:58 | 20.00773 | -155.50583 | 14611 ft | 357 kts | 269° |
| 2026-04-24 20:58 | 20.00619 | -155.53197 | 14069 ft | 353 kts | 269° |
| 2026-04-24 20:58 | 20.00466 | -155.55798 | 13468 ft | 350 kts | 269° |
| 2026-04-24 20:58 | 20.00316 | -155.58363 | 12871 ft | 347 kts | 269° |
| 2026-04-24 20:59 | 20.00166 | -155.60897 | 12175 ft | 338 kts | 268° |
| 2026-04-24 20:59 | 20.00022 | -155.63313 | 11917 ft | 316 kts | 268° |
| 2026-04-24 20:59 | 19.99916 | -155.65068 | 11771 ft | 299 kts | 268° |
| 2026-04-24 20:59 | 19.99741 | -155.67219 | 11596 ft | 280 kts | 263° |
| 2026-04-24 21:00 | 19.99410 | -155.68956 | 11467 ft | 265 kts | 260° |
| 2026-04-24 21:00 | 19.99038 | -155.70808 | 11332 ft | 248 kts | 261° |
| 2026-04-24 21:00 | 19.98698 | -155.72549 | 11152 ft | 235 kts | 261° |
| 2026-04-24 21:00 | 19.98372 | -155.74241 | 10783 ft | 233 kts | 261° |
| 2026-04-24 21:01 | 19.98048 | -155.75923 | 10372 ft | 232 kts | 260° |
| 2026-04-24 21:01 | 19.97723 | -155.77597 | 9991 ft | 230 kts | 260° |
| 2026-04-24 21:01 | 19.97403 | -155.79240 | 9532 ft | 231 kts | 259° |
| 2026-04-24 21:01 | 19.97074 | -155.80919 | 8993 ft | 235 kts | 259° |
| 2026-04-24 21:02 | 19.96737 | -155.82632 | 8460 ft | 237 kts | 259° |
| 2026-04-24 21:02 | 19.96403 | -155.84350 | 7977 ft | 239 kts | 259° |
| 2026-04-24 21:02 | 19.96051 | -155.86071 | 7457 ft | 239 kts | 258° |
| 2026-04-24 21:02 | 19.95683 | -155.87783 | 6974 ft | 235 kts | 257° |
| 2026-04-24 21:03 | 19.95305 | -155.89462 | 6514 ft | 232 kts | 256° |
| 2026-04-24 21:03 | 19.94855 | -155.91076 | 6230 ft | 219 kts | 243° |
| 2026-04-24 21:03 | 19.93948 | -155.92275 | 6088 ft | 204 kts | 217° |
| 2026-04-24 21:03 | 19.92584 | -155.92975 | 5998 ft | 230 kts | 197° |
| 2026-04-24 21:04 | 19.91071 | -155.93466 | 6194 ft | 231 kts | 199° |
| 2026-04-24 21:04 | 19.89570 | -155.94042 | 6386 ft | 231 kts | 202° |
| 2026-04-24 21:04 | 19.88083 | -155.94705 | 6585 ft | 232 kts | 205° |
| 2026-04-24 21:04 | 19.86586 | -155.95367 | 6877 ft | 234 kts | 201° |
| 2026-04-24 21:05 | 19.85034 | -155.95899 | 7201 ft | 237 kts | 193° |
| 2026-04-24 21:05 | 19.83389 | -155.96127 | 7463 ft | 239 kts | 187° |
| 2026-04-24 21:05 | 19.81733 | -155.96315 | 7670 ft | 240 kts | 187° |
| 2026-04-24 21:05 | 19.80063 | -155.96521 | 7721 ft | 242 kts | 187° |
| 2026-04-24 21:06 | 19.78415 | -155.96725 | 7630 ft | 241 kts | 187° |
| 2026-04-24 21:06 | 19.76787 | -155.96927 | 7471 ft | 239 kts | 187° |
| 2026-04-24 21:06 | 19.75122 | -155.97129 | 7085 ft | 244 kts | 187° |
| 2026-04-24 21:06 | 19.73400 | -155.97327 | 6602 ft | 252 kts | 186° |
| 2026-04-24 21:07 | 19.71632 | -155.97518 | 6075 ft | 260 kts | 186° |
| 2026-04-24 21:07 | 19.69794 | -155.97694 | 5432 ft | 272 kts | 185° |
| 2026-04-24 21:07 | 19.67900 | -155.97867 | 5030 ft | 268 kts | 185° |
| 2026-04-24 21:07 | 19.66682 | -155.97984 | 4696 ft | 263 kts | 185° |
| 2026-04-24 21:08 | 19.64609 | -155.98182 | 4270 ft | 249 kts | 185° |
| 2026-04-24 21:08 | 19.62917 | -155.98347 | 3919 ft | 239 kts | 186° |
| 2026-04-24 21:08 | 19.61303 | -155.98507 | 3589 ft | 233 kts | 186° |
| 2026-04-24 21:08 | 19.59767 | -155.98776 | 3557 ft | 212 kts | 205° |
| 2026-04-24 21:09 | 19.58647 | -155.99621 | 3573 ft | 191 kts | 236° |
| 2026-04-24 21:09 | 19.58182 | -156.00895 | 3545 ft | 186 kts | 270° |
| 2026-04-24 21:09 | 19.58464 | -156.02220 | 3572 ft | 187 kts | 304° |
| 2026-04-24 21:09 | 19.59372 | -156.03163 | 3437 ft | 183 kts | 322° |
| 2026-04-24 21:10 | 19.60365 | -156.03974 | 3203 ft | 178 kts | 323° |
| 2026-04-24 21:10 | 19.61351 | -156.04730 | 3011 ft | 177 kts | 325° |
| 2026-04-24 21:10 | 19.62417 | -156.05404 | 2882 ft | 177 kts | 340° |
| 2026-04-24 21:10 | 19.63624 | -156.05626 | 2655 ft | 176 kts | 3° |
| 2026-04-24 21:11 | 19.64829 | -156.05483 | 2375 ft | 176 kts | 7° |
| 2026-04-24 21:11 | 19.66027 | -156.05291 | 2066 ft | 173 kts | 6° |
| 2026-04-24 21:11 | 19.67197 | -156.05185 | 1778 ft | 170 kts | 6° |
| 2026-04-24 21:11 | 19.68382 | -156.05059 | 1459 ft | 172 kts | 3° |
| 2026-04-24 21:12 | 19.69558 | -156.04962 | 1068 ft | 168 kts | 2° |
| 2026-04-24 21:12 | 19.70326 | -156.04892 | 774 ft | 168 kts | 2° |
| 2026-04-24 21:12 | 19.71866 | -156.04735 | 220 ft | 167 kts | 2° |
| 2026-04-24 21:12 | 19.72958 | -156.04649 | 46 ft | 140 kts | 2° |
| 2026-04-24 21:13 | 19.73704 | -156.04580 | 48 ft | 109 kts | 1° |
| 2026-04-24 21:13 | 19.74141 | -156.04543 | 46 ft | 21 kts | 0° |
| 2026-04-24 21:13 | 19.74155 | -156.04538 | 46 ft | 0 kts | 51° |
| 2026-04-24 21:13 | 19.74152 | -156.04520 | 46 ft | 15 kts | 126° |
| 2026-04-24 21:14 | 19.74134 | -156.04385 | 45 ft | 32 kts | 99° |
| 2026-04-24 21:14 | 19.74125 | -156.04319 | 44 ft | 0 kts | 90° |
| 2026-04-24 21:14 | 19.74125 | -156.04318 | 44 ft | 0 kts | 89° |
| 2026-04-24 21:15 | 19.74125 | -156.04309 | 42 ft | 7 kts | 91° |
| 2026-04-24 21:16 | 19.74081 | -156.04296 | 43 ft | 13 kts | 186° |
| 2026-04-24 21:16 | 19.73966 | -156.04301 | 43 ft | 20 kts | 183° |
| 2026-04-24 21:16 | 19.73802 | -156.04316 | 43 ft | 26 kts | 187° |
| 2026-04-24 21:16 | 19.73671 | -156.04329 | 45 ft | 13 kts | 186° |
| 2026-04-24 21:17 | 19.73644 | -156.04298 | 45 ft | 12 kts | 97° |
| 2026-04-24 21:17 | 19.73640 | -156.04245 | 46 ft | 8 kts | 91° |
| 2026-04-24 21:17 | 19.73639 | -156.04237 | 47 ft | 1 kts | 94° |
| 2026-04-24 21:17 | 19.73638 | -156.04222 | 48 ft | 2 kts | 94° |